Time;durP1;ratioP1;P1;durP2;ratioP2;P2;SDS_P1;SDS_P2;PMS_P1;PMS_P2;Temp;Humidity;BMP_temperature;BMP_pressure;BME280_temperature;BME280_humidity;BME280_pressure;Samples;Min_cycle;Max_cycle;Signal;HPM_P1;HPM_P2
2021/09/16 05:24:08;;;;;;;7.75;1.48;;;14.20;99.90;;;;;;4624737;23;20068;-75
2021/09/16 05:26:35;;;;;;;6.20;1.55;;;14.30;99.90;;;;;;4883022;29;20069;-77
2021/09/16 05:29:04;;;;;;;5.45;1.55;;;14.20;99.90;;;;;;4882797;29;20037;-77
2021/09/16 05:31:29;;;;;;;4.45;1.80;;;14.20;99.90;;;;;;4879685;29;20048;-79
2021/09/16 05:33:55;;;;;;;4.40;1.50;;;14.30;99.90;;;;;;4885111;29;20038;-73
2021/09/16 05:36:20;;;;;;;9.00;1.83;;;14.30;99.90;;;;;;4877735;29;20034;-74
2021/09/16 05:38:46;;;;;;;7.80;2.10;;;14.30;99.90;;;;;;4871223;29;20045;-75
2021/09/16 05:41:12;;;;;;;6.63;2.08;;;14.30;99.90;;;;;;4872811;29;20030;-76
2021/09/16 05:43:38;;;;;;;9.85;2.22;;;14.30;99.90;;;;;;4855381;29;20037;-77
2021/09/16 05:46:05;;;;;;;2.28;1.60;;;14.30;99.90;;;;;;4875821;29;20040;-76
2021/09/16 05:48:30;;;;;;;2.80;1.73;;;14.40;99.90;;;;;;4874112;29;20472;-76
2021/09/16 05:50:56;;;;;;;2.30;1.38;;;14.30;99.90;;;;;;4875041;29;20025;-77
2021/09/16 05:53:21;;;;;;;3.40;1.77;;;14.30;99.90;;;;;;4886514;29;20053;-79
2021/09/16 05:55:47;;;;;;;11.02;2.40;;;14.30;99.90;;;;;;4872654;29;20037;-76
2021/09/16 05:58:13;;;;;;;3.88;2.30;;;14.30;99.90;;;;;;4884375;29;20517;-74
2021/09/16 06:00:39;;;;;;;5.18;2.17;;;14.30;99.90;;;;;;4879156;29;20025;-76
2021/09/16 06:03:04;;;;;;;5.10;2.15;;;14.30;99.90;;;;;;4880785;29;20496;-74
2021/09/16 06:05:30;;;;;;;2.92;1.77;;;14.40;99.90;;;;;;4881996;29;20064;-75
2021/09/16 06:07:56;;;;;;;7.55;2.33;;;14.40;99.90;;;;;;4881977;29;20044;-78
2021/09/16 06:10:21;;;;;;;7.40;1.85;;;14.40;99.90;;;;;;4873939;29;20029;-75
2021/09/16 06:12:47;;;;;;;3.83;1.95;;;14.40;99.90;;;;;;4881722;29;20038;-76
2021/09/16 06:15:13;;;;;;;3.38;1.85;;;14.40;99.90;;;;;;4871251;29;20131;-79
2021/09/16 06:17:40;;;;;;;3.85;2.08;;;14.40;99.90;;;;;;4872658;29;20037;-75
2021/09/16 06:20:07;;;;;;;3.35;1.95;;;14.40;99.90;;;;;;4880932;29;20033;-75
2021/09/16 06:22:33;;;;;;;3.17;2.17;;;14.40;99.90;;;;;;4889548;29;20056;-76
2021/09/16 06:24:59;;;;;;;2.92;2.00;;;14.50;99.90;;;;;;4894737;29;20048;-75
2021/09/16 06:27:25;;;;;;;6.47;2.72;;;14.50;99.90;;;;;;4906033;29;20465;-77
2021/09/16 06:29:50;;;;;;;4.15;2.50;;;14.50;99.90;;;;;;4874978;29;20033;-78
2021/09/16 06:32:16;;;;;;;9.73;2.10;;;14.50;99.90;;;;;;4882213;29;20025;-76
2021/09/16 06:34:41;;;;;;;6.03;2.08;;;14.50;99.90;;;;;;4890734;29;20044;-78
2021/09/16 06:37:07;;;;;;;3.30;1.90;;;14.60;99.90;;;;;;4891471;29;20037;-77
2021/09/16 06:39:32;;;;;;;4.95;1.90;;;14.60;99.90;;;;;;4892370;29;20092;-78
2021/09/16 06:41:58;;;;;;;5.93;2.50;;;14.60;99.90;;;;;;4892158;29;20032;-78
2021/09/16 06:44:24;;;;;;;4.82;1.95;;;14.70;99.90;;;;;;4909495;29;20586;-79
2021/09/16 06:46:49;;;;;;;5.47;2.50;;;14.70;99.90;;;;;;4909313;29;20024;-76
2021/09/16 06:49:15;;;;;;;5.20;2.58;;;14.70;99.90;;;;;;4909439;29;20059;-76
2021/09/16 06:51:41;;;;;;;5.82;2.75;;;14.70;99.90;;;;;;4892705;29;20032;-79
2021/09/16 06:54:06;;;;;;;4.93;2.35;;;14.70;99.90;;;;;;4910275;29;20033;-79
2021/09/16 06:56:32;;;;;;;8.27;2.78;;;14.80;99.90;;;;;;4892005;29;20035;-77
2021/09/16 06:58:57;;;;;;;4.28;2.17;;;14.80;99.90;;;;;;4909280;29;20045;-78
2021/09/16 07:01:23;;;;;;;5.15;3.05;;;14.80;99.90;;;;;;4909276;29;20073;-74
2021/09/16 07:03:52;;;;;;;5.28;3.15;;;14.90;99.90;;;;;;4908929;29;20473;-79
2021/09/16 07:06:22;;;;;;;6.75;2.72;;;15.00;99.90;;;;;;4892374;29;20029;-77
2021/09/16 07:08:49;;;;;;;13.80;2.85;;;14.90;99.90;;;;;;4909176;29;20053;-78
2021/09/16 07:11:15;;;;;;;4.65;2.65;;;15.00;99.90;;;;;;4909145;29;20047;-78
2021/09/16 07:13:41;;;;;;;9.10;2.60;;;15.00;99.90;;;;;;4909155;29;20036;-80
2021/09/16 07:16:06;;;;;;;8.02;3.05;;;15.10;99.90;;;;;;4890927;29;20040;-78
2021/09/16 07:18:34;;;;;;;8.90;3.20;;;15.10;99.90;;;;;;4904091;29;20094;-78
2021/09/16 07:21:09;;;;;;;6.20;2.72;;;15.10;99.90;;;;;;4878712;29;20119;-77
2021/09/16 07:23:34;;;;;;;5.82;2.58;;;15.20;99.90;;;;;;4886618;29;20557;-79
2021/09/16 07:26:00;;;;;;;10.25;2.95;;;15.20;99.90;;;;;;4885676;29;20041;-78
2021/09/16 07:28:26;;;;;;;8.73;3.28;;;15.20;99.90;;;;;;4881178;29;20124;-79
2021/09/16 07:30:51;;;;;;;7.00;3.13;;;15.20;99.90;;;;;;4882366;29;20080;-78
2021/09/16 07:33:17;;;;;;;7.10;2.80;;;15.30;99.90;;;;;;4880968;29;20029;-76
2021/09/16 07:35:43;;;;;;;7.63;3.10;;;15.40;99.90;;;;;;4870885;29;20037;-78
2021/09/16 07:38:10;;;;;;;10.38;3.67;;;15.40;99.90;;;;;;4870385;29;20046;-78
2021/09/16 07:40:35;;;;;;;11.40;2.80;;;15.40;99.90;;;;;;4870577;29;20036;-77
2021/09/16 07:43:01;;;;;;;6.03;3.47;;;15.50;99.90;;;;;;4870079;29;20033;-78
2021/09/16 07:45:26;;;;;;;7.53;3.10;;;15.60;99.90;;;;;;4871226;29;20044;-79
2021/09/16 07:47:52;;;;;;;5.55;2.85;;;15.70;99.90;;;;;;4871357;29;20033;-78
2021/09/16 07:50:18;;;;;;;8.55;4.07;;;15.90;99.90;;;;;;4878513;29;20067;-79
2021/09/16 07:52:44;;;;;;;14.93;3.40;;;16.00;99.90;;;;;;4877145;29;20050;-77
2021/09/16 07:55:13;;;;;;;8.80;3.42;;;16.20;99.90;;;;;;4878566;29;20033;-78
2021/09/16 07:57:40;;;;;;;4.13;2.78;;;16.30;99.90;;;;;;4882421;29;20057;-77
2021/09/16 08:00:06;;;;;;;3.38;2.05;;;16.40;99.90;;;;;;4874329;29;20558;-77
2021/09/16 08:02:32;;;;;;;5.65;2.38;;;16.40;99.90;;;;;;4873995;29;20116;-74
2021/09/16 08:04:58;;;;;;;5.47;2.90;;;16.40;99.90;;;;;;4877996;29;20034;-77
2021/09/16 08:07:24;;;;;;;7.90;3.47;;;16.50;99.90;;;;;;4881698;29;20045;-77
2021/09/16 08:09:49;;;;;;;6.00;3.15;;;16.50;99.90;;;;;;4884490;29;20044;-78
2021/09/16 08:12:15;;;;;;;7.22;3.20;;;16.50;99.90;;;;;;4876239;29;20030;-77
2021/09/16 08:14:41;;;;;;;8.18;3.78;;;16.50;99.90;;;;;;4887067;29;20107;-78
2021/09/16 08:17:07;;;;;;;10.52;2.78;;;16.60;99.90;;;;;;4886889;29;20138;-79
2021/09/16 08:19:38;;;;;;;4.88;3.00;;;16.60;99.90;;;;;;4879781;29;20036;-77
2021/09/16 08:22:04;;;;;;;7.60;3.17;;;16.70;99.90;;;;;;4883835;29;20029;-77
2021/09/16 08:24:29;;;;;;;8.48;3.35;;;16.60;99.90;;;;;;4898495;29;20068;-74
2021/09/16 08:26:55;;;;;;;6.15;2.83;;;16.60;99.90;;;;;;4898447;29;20049;-77
2021/09/16 08:29:21;;;;;;;8.13;3.50;;;16.60;99.90;;;;;;4909772;29;20036;-76
2021/09/16 08:31:49;;;;;;;5.80;2.75;;;16.60;99.90;;;;;;4883055;29;20049;-77
2021/09/16 08:34:15;;;;;;;4.22;2.83;;;16.70;99.90;;;;;;4911260;29;20040;-77
2021/09/16 08:36:41;;;;;;;9.68;3.00;;;16.90;99.90;;;;;;4911609;29;20037;-73
2021/09/16 08:39:07;;;;;;;5.97;2.50;;;17.10;99.90;;;;;;4894512;29;20052;-76
2021/09/16 08:41:33;;;;;;;3.13;1.95;;;17.30;99.90;;;;;;4911712;29;20037;-79
2021/09/16 08:44:01;;;;;;;4.57;2.30;;;17.50;99.90;;;;;;4883175;29;20033;-76
2021/09/16 08:46:27;;;;;;;7.32;2.20;;;17.60;99.90;;;;;;4894373;29;20573;-78
2021/09/16 08:48:53;;;;;;;16.05;2.65;;;17.60;99.90;;;;;;4906626;29;20085;-75
2021/09/16 08:51:20;;;;;;;4.10;2.00;;;17.60;99.90;;;;;;4898755;29;20029;-74
2021/09/16 08:53:51;;;;;;;7.47;2.78;;;17.60;99.90;;;;;;4886070;29;20040;-76
2021/09/16 08:56:18;;;;;;;5.93;2.78;;;17.50;99.90;;;;;;4900710;29;20044;-75
2021/09/16 08:58:46;;;;;;;4.93;2.20;;;17.50;99.90;;;;;;4885451;29;20064;-75
2021/09/16 09:01:16;;;;;;;5.70;1.88;;;17.40;99.90;;;;;;4907717;29;20053;-78
2021/09/16 09:03:42;;;;;;;2.53;1.52;;;17.60;99.90;;;;;;4880348;29;20100;-75
2021/09/16 09:06:30;;;;;;;4.53;1.60;;;17.50;99.90;;;;;;4886961;29;20032;-79
2021/09/16 09:09:11;;;;;;;4.22;1.65;;;17.60;99.90;;;;;;4892998;29;20045;-75
2021/09/16 09:11:51;;;;;;;10.95;1.45;;;17.70;99.90;;;;;;4894718;29;20063;-75
2021/09/16 09:14:26;;;;;;;13.70;2.25;;;17.70;99.90;;;;;;4894139;29;20028;-76
2021/09/16 09:16:52;;;;;;;2.80;1.40;;;17.90;99.90;;;;;;4893708;29;20040;-75
2021/09/16 09:19:22;;;;;;;1.95;1.23;;;17.90;99.90;;;;;;4893343;29;20032;-76
2021/09/16 09:21:48;;;;;;;4.15;1.45;;;17.90;99.90;;;;;;4897913;29;20041;-79
2021/09/16 09:24:33;;;;;;;3.15;1.48;;;17.90;99.90;;;;;;4886895;29;20048;-74
2021/09/16 09:27:00;;;;;;;5.10;1.52;;;17.90;99.90;;;;;;4898348;29;20037;-78
2021/09/16 09:29:26;;;;;;;7.90;1.75;;;17.90;99.90;;;;;;4889479;29;20032;-79
2021/09/16 09:32:01;;;;;;;10.52;2.00;;;17.90;99.90;;;;;;4903636;29;20092;-75
2021/09/16 09:34:35;;;;;;;4.55;1.58;;;18.00;99.90;;;;;;4895980;29;20036;-76
2021/09/16 09:37:08;;;;;;;;;;;18.00;99.90;;;;;;4880629;29;20143;-75
2021/09/16 09:39:34;;;;;;;2.88;1.50;;;18.00;99.90;;;;;;4890136;29;19911;-77
2021/09/16 09:42:18;;;;;;;3.78;1.92;;;18.00;99.90;;;;;;4880650;29;20076;-77
2021/09/16 09:44:44;;;;;;;8.43;1.23;;;17.90;99.90;;;;;;4896534;29;20105;-79
2021/09/16 09:47:11;;;;;;;11.30;1.50;;;17.90;99.90;;;;;;4897184;29;20552;-79
2021/09/16 09:49:38;;;;;;;4.13;1.45;;;17.90;99.90;;;;;;4885309;29;20100;-77
2021/09/16 09:52:04;;;;;;;1.60;1.08;;;17.90;99.90;;;;;;4874961;29;20029;-75
2021/09/16 09:54:39;;;;;;;8.25;1.88;;;17.80;99.90;;;;;;4882885;29;20029;-76
2021/09/16 09:57:13;;;;;;;1.77;1.02;;;17.70;99.90;;;;;;4880903;29;20047;-78
2021/09/16 09:59:48;;;;;;;;;;;17.60;99.90;;;;;;4893443;29;20128;-77
2021/09/16 10:02:16;;;;;;;8.35;1.60;;;17.50;99.90;;;;;;4898112;29;19968;-78
2021/09/16 10:04:43;;;;;;;7.55;1.50;;;17.30;99.90;;;;;;4903875;29;20065;-79
2021/09/16 10:07:25;;;;;;;4.03;1.73;;;17.20;99.90;;;;;;4877854;29;20056;-76
2021/09/16 10:09:58;;;;;;;3.63;1.30;;;17.00;99.90;;;;;;4879604;29;20120;-77
2021/09/16 10:12:24;;;;;;;1.92;1.27;;;16.80;99.90;;;;;;4893300;29;20040;-72
2021/09/16 10:14:50;;;;;;;3.72;1.42;;;16.70;99.90;;;;;;4899666;29;20032;-74
2021/09/16 10:17:16;;;;;;;3.17;1.85;;;16.70;99.90;;;;;;4904208;29;20037;-75
2021/09/16 10:19:43;;;;;;;2.17;1.45;;;16.80;99.90;;;;;;4896506;29;20035;-74
2021/09/16 10:22:13;;;;;;;5.10;1.80;;;16.90;99.90;;;;;;4909261;29;20041;-75
2021/09/16 10:24:40;;;;;;;2.42;1.50;;;17.00;99.90;;;;;;4909485;29;20059;-75
2021/09/16 10:27:40;;;;;;;3.47;1.42;;;17.10;99.90;;;;;;4909934;29;20033;-75
2021/09/16 10:30:22;;;;;;;3.53;1.55;;;17.20;99.90;;;;;;4905964;29;20534;-76
2021/09/16 10:33:02;;;;;;;7.72;1.90;;;17.40;99.90;;;;;;4909860;29;20107;-79
2021/09/16 10:35:29;;;;;;;5.13;1.27;;;17.50;99.90;;;;;;4892290;29;20029;-77
2021/09/16 10:37:54;;;;;;;5.68;1.55;;;17.80;99.90;;;;;;4909228;29;20069;-78
2021/09/16 10:40:22;;;;;;;1.75;1.10;;;17.90;99.90;;;;;;4909578;29;20044;-77
2021/09/16 10:42:57;;;;;;;2.78;1.17;;;17.90;99.90;;;;;;4909855;29;20421;-79
2021/09/16 10:45:36;;;;;;;2.97;1.60;;;18.00;99.90;;;;;;4909504;29;20063;-79
2021/09/16 10:48:25;;;;;;;7.32;1.45;;;17.90;99.90;;;;;;4909413;29;20047;-75
2021/09/16 10:51:01;;;;;;;2.75;1.15;;;17.90;99.90;;;;;;4909431;29;20565;-77
2021/09/16 10:53:34;;;;;;;1.65;1.15;;;17.90;99.90;;;;;;4892216;29;20091;-74
2021/09/16 10:56:00;;;;;;;5.25;1.20;;;17.80;99.90;;;;;;4892430;29;20029;-77
2021/09/16 10:58:27;;;;;;;4.03;1.48;;;17.60;99.90;;;;;;4909528;29;20057;-75
2021/09/16 11:00:53;;;;;;;1.58;1.13;;;17.70;99.90;;;;;;4909041;29;20049;-78
2021/09/16 11:03:19;;;;;;;1.85;0.95;;;17.60;99.90;;;;;;4909481;29;20052;-80
2021/09/16 11:05:47;;;;;;;5.35;1.38;;;17.60;99.90;;;;;;4892753;29;20028;-78
2021/09/16 11:08:16;;;;;;;1.40;0.90;;;17.60;99.90;;;;;;4908975;29;20035;-76
2021/09/16 11:10:41;;;;;;;3.63;1.55;;;17.60;99.90;;;;;;4909556;29;20043;-75
2021/09/16 11:13:31;;;;;;;5.07;1.00;;;17.60;99.90;;;;;;4892415;29;20279;-77
2021/09/16 11:15:57;;;;;;;2.22;1.30;;;17.70;99.90;;;;;;4892163;29;20465;-77
2021/09/16 11:18:24;;;;;;;5.40;1.20;;;18.10;99.90;;;;;;4892352;29;20133;-79
2021/09/16 11:20:56;;;;;;;2.25;1.00;;;18.50;99.90;;;;;;4909022;29;20028;-77
2021/09/16 11:23:31;;;;;;;2.75;1.38;;;18.90;99.90;;;;;;4908615;29;20074;-76
2021/09/16 11:25:57;;;;;;;2.67;1.42;;;19.20;99.90;;;;;;4909342;29;20474;-77
2021/09/16 11:28:22;;;;;;;2.03;1.08;;;19.40;99.90;;;;;;4908975;29;20033;-80
2021/09/16 11:30:48;;;;;;;4.80;1.20;;;19.60;99.90;;;;;;4892319;29;20053;-79
2021/09/16 11:33:18;;;;;;;4.15;1.38;;;19.90;99.90;;;;;;4910152;29;20032;-80
2021/09/16 11:35:45;;;;;;;8.27;1.75;;;20.10;99.90;;;;;;4913079;29;20032;-78
2021/09/16 11:38:11;;;;;;;3.85;1.60;;;20.30;99.90;;;;;;4912997;29;20052;-77
2021/09/16 11:40:39;;;;;;;5.72;1.50;;;20.50;99.90;;;;;;4913033;29;20032;-76
2021/09/16 11:43:08;;;;;;;5.80;1.27;;;20.60;99.90;;;;;;4912506;29;20040;-78
2021/09/16 11:45:35;;;;;;;5.43;1.33;;;20.80;99.90;;;;;;4896094;29;20104;-76
2021/09/16 11:48:09;;;;;;;5.13;1.45;;;20.90;99.90;;;;;;4912981;29;20029;-80
2021/09/16 11:50:49;;;;;;;2.83;1.00;;;20.90;99.90;;;;;;4895458;29;20032;-78
2021/09/16 11:53:24;;;;;;;6.60;0.90;;;20.90;99.90;;;;;;4913285;29;20028;-79
2021/09/16 11:55:55;;;;;;;3.30;1.00;;;20.80;99.90;;;;;;4895195;29;20088;-77
2021/09/16 11:58:35;;;;;;;2.80;1.20;;;20.60;99.90;;;;;;4895414;29;20040;-78
2021/09/16 12:01:16;;;;;;;3.58;1.10;;;20.40;99.90;;;;;;4895678;29;20037;-76
2021/09/16 12:03:50;;;;;;;5.68;0.93;;;20.20;99.90;;;;;;4895594;29;20048;-79
2021/09/16 12:06:18;;;;;;;3.75;1.20;;;20.00;99.90;;;;;;4912873;29;20025;-75
2021/09/16 12:08:46;;;;;;;4.28;1.38;;;20.10;99.90;;;;;;4912730;29;20101;-80
2021/09/16 12:11:13;;;;;;;3.50;1.00;;;20.20;99.90;;;;;;4911957;29;20024;-80
2021/09/16 12:13:41;;;;;;;2.35;0.98;;;20.30;99.90;;;;;;4895769;29;20067;-79
2021/09/16 12:16:12;;;;;;;3.60;1.00;;;20.60;99.90;;;;;;4895727;29;20417;-81
2021/09/16 12:18:41;;;;;;;3.25;1.00;;;20.80;99.90;;;;;;4911162;29;20374;-77
2021/09/16 12:21:11;;;;;;;2.75;1.00;;;21.10;99.90;;;;;;4894874;29;20036;-81
2021/09/16 12:23:38;;;;;;;1.48;0.88;;;21.50;99.90;;;;;;4906459;29;20144;-75
2021/09/16 12:26:07;;;;;;;1.67;0.52;;;21.70;99.90;;;;;;4897168;29;20028;-73
2021/09/16 12:28:57;;;;;;;7.63;0.52;;;22.00;99.90;;;;;;4883356;29;20029;-79
2021/09/16 12:31:33;;;;;;;4.10;1.27;;;22.20;99.90;;;;;;4878770;29;20036;-74
2021/09/16 12:34:05;;;;;;;1.65;0.65;;;22.30;99.90;;;;;;4881159;29;20237;-73
2021/09/16 12:39:15;;;;;;;2.33;0.80;;;21.90;99.90;;;;;;4386228;23;20056;-78
2021/09/16 12:41:49;;;;;;;2.60;0.90;;;21.90;99.90;;;;;;4878857;29;20036;-75
2021/09/16 12:44:26;;;;;;;2.42;0.60;;;21.90;99.90;;;;;;4899483;29;20044;-75
2021/09/16 12:46:56;;;;;;;0.95;0.65;;;21.50;99.90;;;;;;4910481;29;20079;-75
2021/09/16 12:49:27;;;;;;;2.25;1.08;;;21.20;99.90;;;;;;4911182;29;20037;-76
2021/09/16 12:52:22;;;;;;;1.67;0.88;;;21.10;99.90;;;;;;4910470;29;20052;-75
2021/09/16 12:54:55;;;;;;;4.33;1.00;;;21.10;99.90;;;;;;4901612;29;20131;-75
2021/09/16 12:57:24;;;;;;;5.60;0.75;;;21.10;99.90;;;;;;4911110;29;20087;-78
2021/09/16 13:00:00;;;;;;;4.30;0.70;;;21.10;99.90;;;;;;4887386;29;20048;-77
2021/09/16 13:02:31;;;;;;;0.73;0.40;;;20.80;99.90;;;;;;4897719;29;20056;-77
2021/09/16 13:05:02;;;;;;;5.85;0.82;;;20.60;99.90;;;;;;4904821;29;20040;-76
2021/09/16 13:07:35;;;;;;;3.65;0.70;;;20.30;99.90;;;;;;4908728;29;20108;-74
2021/09/16 13:10:08;;;;;;;2.05;0.88;;;20.10;99.90;;;;;;4880929;29;20048;-76
2021/09/16 13:12:34;;;;;;;6.50;1.50;;;19.80;99.90;;;;;;4902444;29;20032;-75
2021/09/16 13:15:04;;;;;;;4.70;1.48;;;19.50;99.90;;;;;;4891114;29;20052;-79
2021/09/16 13:17:30;;;;;;;4.15;1.10;;;19.20;99.90;;;;;;4889676;29;20048;-77
2021/09/16 13:19:56;;;;;;;1.67;0.85;;;19.00;99.90;;;;;;4891832;29;20032;-79
2021/09/16 13:22:23;;;;;;;4.40;0.85;;;18.80;99.90;;;;;;4901074;29;20033;-78
2021/09/16 13:24:50;;;;;;;4.57;0.80;;;18.70;99.90;;;;;;4902573;29;20377;-75
2021/09/16 13:27:16;;;;;;;1.85;1.00;;;18.60;99.90;;;;;;4883990;29;20048;-78
2021/09/16 13:29:43;;;;;;;1.60;0.73;;;18.60;99.90;;;;;;4905611;29;20119;-75
2021/09/16 13:32:08;;;;;;;8.63;1.10;;;18.70;99.90;;;;;;4905365;29;20040;-73
2021/09/16 13:34:34;;;;;;;1.23;0.63;;;18.80;99.90;;;;;;4899320;29;20033;-77
2021/09/16 13:37:00;;;;;;;4.50;1.60;;;19.00;99.90;;;;;;4905709;29;20087;-75
2021/09/16 13:39:29;;;;;;;3.22;1.52;;;19.30;99.90;;;;;;4886419;29;20061;-77
2021/09/16 13:41:56;;;;;;;1.20;0.90;;;19.40;99.90;;;;;;4874612;29;20029;-77
2021/09/16 13:44:29;;;;;;;3.65;1.30;;;19.40;99.90;;;;;;4872013;29;20066;-77
2021/09/16 13:46:54;;;;;;;1.13;0.73;;;19.30;99.90;;;;;;4885897;29;20117;-77
2021/09/16 13:49:20;;;;;;;1.58;0.98;;;19.20;99.90;;;;;;4881500;29;20033;-78
2021/09/16 13:51:47;;;;;;;7.43;1.50;;;19.20;99.90;;;;;;4879912;29;20037;-74
2021/09/16 13:54:13;;;;;;;3.28;1.27;;;19.10;99.90;;;;;;4884612;29;20048;-76
2021/09/16 13:56:43;;;;;;;7.65;1.63;;;19.10;99.90;;;;;;4885246;29;20101;-75
2021/09/16 13:59:09;;;;;;;5.78;1.60;;;19.20;99.90;;;;;;4878190;29;20101;-78
2021/09/16 14:01:35;;;;;;;29.50;2.15;;;19.60;99.90;;;;;;4874393;29;20049;-75
2021/09/16 14:04:00;;;;;;;2.25;1.15;;;20.00;99.90;;;;;;4882917;29;20037;-76
2021/09/16 14:06:28;;;;;;;3.85;1.25;;;20.60;99.90;;;;;;4884081;29;20044;-73
2021/09/16 14:08:53;;;;;;;2.33;1.02;;;21.40;99.90;;;;;;4891390;29;20033;-77
2021/09/16 14:11:19;;;;;;;7.22;1.25;;;22.00;99.90;;;;;;4885688;29;20441;-79
2021/09/16 14:13:45;;;;;;;6.97;1.20;;;22.70;99.90;;;;;;4874268;29;20037;-76
2021/09/16 14:16:11;;;;;;;4.88;1.13;;;23.40;99.90;;;;;;4889938;29;20062;-76
2021/09/16 14:18:37;;;;;;;2.08;1.38;;;23.90;99.90;;;;;;4886178;29;20037;-75
2021/09/16 14:21:03;;;;;;;3.45;1.10;;;24.50;99.90;;;;;;4882211;29;20044;-75
2021/09/16 14:23:30;;;;;;;2.83;1.00;;;24.70;99.90;;;;;;4882470;29;20040;-78
2021/09/16 14:25:55;;;;;;;4.43;1.10;;;24.10;99.90;;;;;;4885158;29;20072;-74
2021/09/16 14:28:21;;;;;;;4.05;1.27;;;23.30;99.90;;;;;;4887527;29;20029;-76
2021/09/16 14:30:48;;;;;;;7.20;1.42;;;22.40;99.90;;;;;;4889467;29;20037;-76
2021/09/16 14:33:19;;;;;;;7.45;1.70;;;21.70;99.90;;;;;;4888944;29;20093;-75
2021/09/16 14:35:48;;;;;;;5.15;1.02;;;21.10;99.90;;;;;;4882140;29;20049;-76
2021/09/16 14:38:14;;;;;;;5.38;1.55;;;20.80;99.90;;;;;;4886017;29;20037;-78
2021/09/16 14:40:41;;;;;;;5.72;1.33;;;20.60;99.90;;;;;;4886008;29;20437;-77
2021/09/16 14:43:07;;;;;;;6.38;1.27;;;20.40;99.90;;;;;;4882012;29;20092;-77
2021/09/16 14:45:33;;;;;;;3.75;0.90;;;20.30;99.90;;;;;;4881134;29;20029;-77
2021/09/16 14:47:59;;;;;;;2.42;1.05;;;20.10;99.90;;;;;;4880640;29;20118;-75
2021/09/16 14:50:26;;;;;;;2.25;0.98;;;20.00;99.90;;;;;;4885551;29;20021;-74
2021/09/16 14:52:51;;;;;;;3.13;0.95;;;19.80;99.90;;;;;;4885921;29;20052;-78
2021/09/16 14:55:17;;;;;;;1.98;0.82;;;19.60;99.90;;;;;;4884402;29;20032;-76
2021/09/16 14:57:43;;;;;;;1.65;0.90;;;19.40;99.90;;;;;;4880730;29;20096;-74
2021/09/16 15:00:10;;;;;;;4.10;1.02;;;19.30;99.90;;;;;;4877612;29;20530;-74
2021/09/16 15:02:36;;;;;;;7.22;1.00;;;19.20;99.90;;;;;;4877679;29;20105;-77
2021/09/16 15:05:02;;;;;;;5.60;1.25;;;19.00;99.90;;;;;;4875639;29;20402;-76
2021/09/16 15:07:28;;;;;;;4.38;1.73;;;18.80;99.90;;;;;;4870485;29;20033;-73
2021/09/16 15:09:53;;;;;;;2.17;1.10;;;18.60;99.90;;;;;;4882508;29;20037;-79
2021/09/16 15:12:19;;;;;;;5.65;1.17;;;18.40;99.90;;;;;;4889074;29;20033;-78
2021/09/16 15:14:45;;;;;;;7.75;1.33;;;18.20;99.90;;;;;;4887259;29;20029;-76
2021/09/16 15:17:13;;;;;;;2.00;0.82;;;18.10;99.90;;;;;;4881606;29;20068;-80
2021/09/16 15:19:40;;;;;;;2.63;1.20;;;18.00;99.90;;;;;;4869800;29;20033;-76
2021/09/16 15:22:06;;;;;;;2.40;1.30;;;17.90;99.90;;;;;;4871721;29;20763;-75
2021/09/16 15:24:32;;;;;;;6.25;1.48;;;17.80;99.90;;;;;;4870254;29;20041;-77
2021/09/16 15:26:58;;;;;;;8.77;1.88;;;17.70;99.90;;;;;;4872087;29;20085;-76
2021/09/16 15:29:24;;;;;;;3.47;1.17;;;17.60;99.90;;;;;;4871687;29;20068;-78
2021/09/16 15:31:52;;;;;;;12.85;1.55;;;17.60;99.90;;;;;;4876873;29;20019;-78
2021/09/16 15:34:19;;;;;;;7.80;1.70;;;17.50;99.90;;;;;;4882829;29;20061;-78
2021/09/16 15:36:47;;;;;;;8.23;1.65;;;17.50;99.90;;;;;;4885549;29;20040;-79
2021/09/16 15:39:14;;;;;;;5.45;1.05;;;17.50;99.90;;;;;;4871669;29;20060;-78
2021/09/16 15:41:40;;;;;;;2.08;1.17;;;17.60;99.90;;;;;;4871980;29;20034;-78
2021/09/16 15:44:06;;;;;;;7.47;1.38;;;17.70;99.90;;;;;;4870646;29;20025;-79
2021/09/16 15:46:32;;;;;;;2.53;1.23;;;17.80;99.90;;;;;;4870696;29;20033;-80
2021/09/16 15:48:58;;;;;;;3.20;1.08;;;17.90;99.90;;;;;;4871663;29;20026;-79
2021/09/16 15:51:24;;;;;;;4.88;1.65;;;17.90;99.90;;;;;;4871397;29;20040;-78
2021/09/16 15:53:51;;;;;;;1.70;1.00;;;18.10;99.90;;;;;;4868834;29;20030;-78
2021/09/16 15:56:17;;;;;;;19.92;1.50;;;18.10;99.90;;;;;;4885113;29;20033;-77
2021/09/16 15:58:43;;;;;;;6.20;1.35;;;18.10;99.90;;;;;;4876623;29;20479;-75
2021/09/16 16:01:10;;;;;;;3.20;1.48;;;18.10;99.90;;;;;;4871040;29;20037;-76
2021/09/16 16:03:36;;;;;;;7.05;1.20;;;18.00;99.90;;;;;;4871773;29;20044;-77
2021/09/16 16:06:05;;;;;;;12.18;1.17;;;17.90;99.90;;;;;;4878295;29;20048;-78
2021/09/16 16:08:32;;;;;;;2.70;0.98;;;18.00;99.90;;;;;;4880741;29;20131;-74
2021/09/16 16:11:01;;;;;;;1.38;0.80;;;18.10;99.90;;;;;;4878734;29;20101;-75
2021/09/16 16:13:29;;;;;;;2.00;0.88;;;18.00;99.90;;;;;;4870797;29;20036;-76
2021/09/16 16:15:54;;;;;;;3.30;1.00;;;17.90;99.90;;;;;;4871222;29;20029;-78
2021/09/16 16:18:20;;;;;;;12.77;1.42;;;17.90;99.90;;;;;;4871462;29;20038;-77
2021/09/16 16:20:46;;;;;;;4.53;0.60;;;17.90;99.90;;;;;;4872788;29;20029;-76
2021/09/16 16:23:13;;;;;;;3.50;1.00;;;17.80;99.90;;;;;;4875067;29;20113;-75
2021/09/16 16:25:39;;;;;;;3.03;1.25;;;17.80;99.90;;;;;;4874657;29;20034;-73
2021/09/16 16:28:05;;;;;;;3.35;1.02;;;17.80;99.90;;;;;;4874492;29;20044;-75
2021/09/16 16:30:31;;;;;;;5.78;0.93;;;17.70;99.90;;;;;;4873648;29;20029;-76
2021/09/16 16:32:56;;;;;;;1.80;0.85;;;17.70;99.90;;;;;;4874958;29;20062;-75
2021/09/16 16:35:23;;;;;;;3.92;1.00;;;17.70;99.90;;;;;;4873067;29;20033;-77
2021/09/16 16:37:49;;;;;;;5.20;0.80;;;17.60;99.90;;;;;;4874313;29;20068;-76
2021/09/16 16:40:16;;;;;;;5.20;1.08;;;17.50;99.90;;;;;;4874589;29;20049;-74
2021/09/16 16:42:42;;;;;;;1.35;0.70;;;17.50;99.90;;;;;;4874592;29;20625;-75
2021/09/16 16:45:09;;;;;;;1.15;0.85;;;17.40;99.90;;;;;;4874619;29;20041;-76
2021/09/16 16:47:39;;;;;;;0.95;0.82;;;17.40;99.90;;;;;;4874404;29;20037;-77
2021/09/16 16:50:07;;;;;;;5.65;0.80;;;17.40;99.90;;;;;;4873012;29;20406;-76
2021/09/16 16:52:32;;;;;;;3.28;1.02;;;17.30;99.90;;;;;;4874667;29;20029;-76
2021/09/16 16:54:58;;;;;;;6.32;0.65;;;17.20;99.90;;;;;;4873849;29;20032;-78
2021/09/16 16:57:23;;;;;;;2.05;0.88;;;17.20;99.90;;;;;;4877851;29;20502;-75
2021/09/16 16:59:49;;;;;;;3.53;1.00;;;17.20;99.90;;;;;;4879814;29;20021;-76
2021/09/16 17:02:15;;;;;;;2.13;1.05;;;17.30;99.90;;;;;;4871982;29;20034;-75
2021/09/16 17:04:40;;;;;;;2.17;0.80;;;17.10;99.90;;;;;;4872265;29;20041;-76
2021/09/16 17:07:06;;;;;;;5.00;1.05;;;17.00;99.90;;;;;;4879502;29;20112;-76
2021/09/16 17:09:31;;;;;;;3.65;0.82;;;16.90;99.90;;;;;;4883222;29;20030;-74
2021/09/16 17:11:57;;;;;;;1.67;0.80;;;16.90;99.90;;;;;;4876500;29;20145;-79
2021/09/16 17:14:22;;;;;;;4.15;1.25;;;16.70;99.90;;;;;;4884413;29;20033;-76
2021/09/16 17:16:48;;;;;;;2.40;0.88;;;16.70;99.90;;;;;;4883722;29;20037;-76
2021/09/16 17:19:15;;;;;;;2.10;0.98;;;16.70;99.90;;;;;;4873608;29;20045;-74
2021/09/16 17:21:41;;;;;;;1.50;0.90;;;16.60;99.90;;;;;;4873399;29;20021;-76
2021/09/16 17:24:07;;;;;;;4.10;1.40;;;16.60;99.90;;;;;;4873348;29;20040;-75
2021/09/16 17:26:33;;;;;;;6.38;1.10;;;16.60;99.90;;;;;;4881732;29;20041;-75
2021/09/16 17:28:58;;;;;;;2.28;0.82;;;16.50;99.90;;;;;;4873101;29;20371;-75
2021/09/16 17:31:24;;;;;;;1.25;0.80;;;16.50;99.90;;;;;;4872176;29;20069;-78
2021/09/16 17:33:49;;;;;;;3.40;0.95;;;16.40;99.90;;;;;;4872220;29;20039;-78
2021/09/16 17:36:15;;;;;;;1.70;0.80;;;16.50;99.90;;;;;;4882756;29;20029;-78
2021/09/16 17:38:42;;;;;;;4.95;1.23;;;16.50;99.90;;;;;;4874114;29;20056;-78
2021/09/16 17:41:08;;;;;;;2.08;0.98;;;16.50;99.90;;;;;;4873749;29;20048;-77
2021/09/16 17:43:33;;;;;;;2.78;1.35;;;16.50;99.90;;;;;;4871327;29;20092;-74
2021/09/16 17:45:59;;;;;;;0.80;0.70;;;16.50;99.90;;;;;;4871977;29;20040;-75
2021/09/16 17:48:25;;;;;;;1.98;0.90;;;16.50;99.90;;;;;;4873513;29;20030;-75
2021/09/16 17:50:50;;;;;;;1.20;0.73;;;16.40;99.90;;;;;;4872956;29;20076;-75
2021/09/16 17:53:16;;;;;;;6.38;1.52;;;16.40;99.90;;;;;;4873403;29;20034;-76
2021/09/16 17:55:46;;;;;;;8.15;1.77;;;16.30;99.90;;;;;;4871736;29;20032;-77
2021/09/16 17:58:14;;;;;;;3.15;0.93;;;16.40;99.90;;;;;;4882048;29;20046;-75
2021/09/16 18:00:41;;;;;;;4.28;1.27;;;16.40;99.90;;;;;;4882177;29;20044;-76
2021/09/16 18:03:06;;;;;;;6.22;1.15;;;16.40;99.90;;;;;;4879818;29;20032;-76
2021/09/16 18:05:33;;;;;;;3.63;1.38;;;16.30;99.90;;;;;;4890854;29;20462;-75
2021/09/16 18:08:00;;;;;;;3.92;1.52;;;16.40;99.90;;;;;;4887300;29;20033;-77
2021/09/16 18:10:26;;;;;;;8.27;1.52;;;16.40;99.90;;;;;;4888805;29;20041;-77
2021/09/16 18:12:58;;;;;;;2.72;0.98;;;16.30;99.90;;;;;;4890210;29;20077;-76
2021/09/16 18:15:24;;;;;;;4.18;1.30;;;16.40;99.90;;;;;;4891315;29;20029;-77
2021/09/16 18:17:49;;;;;;;5.78;1.27;;;16.40;99.90;;;;;;4889508;29;20072;-75